Mirgab Vi — ZGAO4 — position and weather

sailwx.info

Track history (hours):
 
Tides and Currents Weather Stations Pressure Air Temp Water Temp Dewpoint Dewpoint Depression Visibility Wind Speed Wind Dir Waves Ship Positions

Mirgab Vi

Last reported at 2015-Aug-31 00:26 UTC. Time now 2015-Aug-31 08:51 UTC.
Position N 43°32' E 007°02'.

Length 49 m; draft 2.9 m.

Type: Pleasure craft. MMSI: 319394000.

Date/timePositionNaut miles runAvg speedWind from/ knotsBaromVisibWave heightAir tempDewpointWater temp
2015-Aug-31 00:26N 43°32' E 007°02'0 0.0
2015-Aug-30 21:08N 43°32' E 007°02'0 0.0
2015-Aug-30 15:09N 43°32' E 007°02'1 0.9
2015-Aug-30 14:30N 43°32' E 007°01'8 8.5
2015-Aug-30 13:33N 43°35' E 007°12'9 8.2
2015-Aug-30 12:29N 43°42' E 007°19'0 0.0
2015-Aug-30 10:29N 43°42' E 007°19'0 0.0
2015-Aug-30 09:29N 43°42' E 007°19'0 0.0
2015-Aug-30 08:29N 43°42' E 007°19'0 0.0
2015-Aug-30 06:29N 43°42' E 007°19'0 0.0
2015-Aug-30 05:23N 43°42' E 007°19'0 0.0
2015-Aug-30 04:29N 43°42' E 007°19'3 2.9
2015-Aug-30 03:27N 43°39' E 007°21'910.4
2015-Aug-30 02:33N 43°34' E 007°32'1212.4
2015-Aug-30 01:33N 43°27' E 007°46'1212.4
2015-Aug-30 00:33N 43°20' E 008°01'1412.4
2015-Aug-29 23:24N 43°12' E 008°17'1112.1
2015-Aug-29 22:32N 43°06' E 008°29'44 4.7
2015-Aug-29 13:10N 42°41' E 009°17'3 3.9
2015-Aug-29 12:21N 42°43' E 009°15'2 0.4
2015-Aug-29 08:14N 42°45' E 009°13'37 2.1
2015-Aug-28 14:20N 42°24' E 008°32'86 3.3
2015-Aug-27 12:33N 41°11' E 009°34'  
Track history (hours):
 
Tides and Currents Weather Stations Pressure Air Temp Water Temp Dewpoint Dewpoint Depression Visibility Wind Speed Wind Dir Waves Ship Positions

Mirgab Vi

Last reported at 2015-Aug-31 00:26 UTC. Time now 2015-Aug-31 08:51 UTC.
Position N 43°32' E 007°02'.

Length 49 m; draft 2.9 m.

Type: Pleasure craft. MMSI: 319394000.

Date/timePositionNaut miles runAvg speedWind from/ knotsBaromVisibWave heightAir tempDewpointWater temp
2015-Aug-31 00:26N 43°32' E 007°02'0 0.0
2015-Aug-30 21:08N 43°32' E 007°02'0 0.0
2015-Aug-30 15:09N 43°32' E 007°02'1 0.9
2015-Aug-30 14:30N 43°32' E 007°01'8 8.5
2015-Aug-30 13:33N 43°35' E 007°12'9 8.2
2015-Aug-30 12:29N 43°42' E 007°19'0 0.0
2015-Aug-30 10:29N 43°42' E 007°19'0 0.0
2015-Aug-30 09:29N 43°42' E 007°19'0 0.0
2015-Aug-30 08:29N 43°42' E 007°19'0 0.0
2015-Aug-30 06:29N 43°42' E 007°19'0 0.0
2015-Aug-30 05:23N 43°42' E 007°19'0 0.0
2015-Aug-30 04:29N 43°42' E 007°19'3 2.9
2015-Aug-30 03:27N 43°39' E 007°21'910.4
2015-Aug-30 02:33N 43°34' E 007°32'1212.4
2015-Aug-30 01:33N 43°27' E 007°46'1212.4
2015-Aug-30 00:33N 43°20' E 008°01'1412.4
2015-Aug-29 23:24N 43°12' E 008°17'1112.1
2015-Aug-29 22:32N 43°06' E 008°29'44 4.7
2015-Aug-29 13:10N 42°41' E 009°17'3 3.9
2015-Aug-29 12:21N 42°43' E 009°15'2 0.4
2015-Aug-29 08:14N 42°45' E 009°13'37 2.1
2015-Aug-28 14:20N 42°24' E 008°32'86 3.3
2015-Aug-27 12:33N 41°11' E 009°34'  

Dump ship's entire track history